Time;durP1;ratioP1;P1;durP2;ratioP2;P2;SDS_P1;SDS_P2;PMS_P1;PMS_P2;Temp;Humidity;BMP_temperature;BMP_pressure;BME280_temperature;BME280_humidity;BME280_pressure;Samples;Min_cycle;Max_cycle;Signal;HPM_P1;HPM_P2
2023/01/06 00:00:30;;;;;;;3.80;2.28;;;14.70;63.20;;;;;;5014208;28;20095;-87
2023/01/06 00:02:55;;;;;;;3.95;2.35;;;14.20;64.00;;;;;;5012370;28;20106;-88
2023/01/06 00:05:21;;;;;;;3.92;2.38;;;14.30;63.70;;;;;;5011824;28;20054;-88
2023/01/06 00:07:51;;;;;;;3.40;2.00;;;14.50;63.50;;;;;;5014649;28;20029;-92
2023/01/06 00:10:18;;;;;;;3.42;1.92;;;14.50;62.90;;;;;;4999179;28;20089;-83
2023/01/06 00:12:47;;;;;;;4.07;2.03;;;14.10;64.10;;;;;;5003183;28;20038;-85
2023/01/06 00:15:14;;;;;;;3.42;1.90;;;14.40;63.40;;;;;;4999299;28;20085;-94
2023/01/06 00:17:42;;;;;;;3.97;2.10;;;14.20;63.40;;;;;;4998953;28;20034;-91
2023/01/06 00:20:08;;;;;;;5.63;2.03;;;14.10;64.00;;;;;;5001254;28;20030;-85
2023/01/06 00:22:34;;;;;;;3.60;2.03;;;14.20;63.90;;;;;;5002570;28;20022;-90
2023/01/06 00:25:00;;;;;;;4.28;2.08;;;14.30;63.50;;;;;;4997032;28;20180;-87
2023/01/06 00:27:25;;;;;;;4.00;2.00;;;14.10;63.40;;;;;;4998700;28;20042;-94
2023/01/06 00:29:51;;;;;;;4.45;1.90;;;14.20;63.90;;;;;;4997794;28;20443;-87
2023/01/06 00:32:17;;;;;;;3.13;1.60;;;14.30;63.20;;;;;;4996849;28;20045;-92
2023/01/06 00:34:43;;;;;;;4.45;1.90;;;14.30;62.50;;;;;;4999074;28;20414;-87
2023/01/06 00:37:09;;;;;;;3.88;2.08;;;14.40;62.90;;;;;;4997222;28;20062;-82
2023/01/06 00:39:35;;;;;;;4.75;1.80;;;14.60;61.80;;;;;;4997545;28;20030;-86
2023/01/06 00:42:03;;;;;;;3.78;1.95;;;14.40;62.30;;;;;;4996509;28;20062;-92
2023/01/06 00:44:34;;;;;;;3.20;1.90;;;14.70;61.50;;;;;;4998499;28;20116;-95
2023/01/06 00:47:02;;;;;;;4.65;2.17;;;14.50;62.10;;;;;;5018042;28;20134;-96
2023/01/06 00:49:28;;;;;;;3.22;1.73;;;14.70;61.70;;;;;;5017938;28;20026;-84
2023/01/06 00:51:54;;;;;;;4.82;1.80;;;14.90;60.60;;;;;;5017019;28;20046;-93
2023/01/06 00:54:20;;;;;;;5.65;2.47;;;14.80;61.30;;;;;;5014672;28;20022;-88
2023/01/06 00:56:48;;;;;;;4.95;1.80;;;14.60;61.30;;;;;;5017928;28;20027;-84
2023/01/06 00:59:16;;;;;;;3.22;1.90;;;14.70;61.10;;;;;;5016378;28;20031;-86
2023/01/06 01:01:47;;;;;;;4.03;2.03;;;14.80;61.10;;;;;;5000823;28;20034;-87
2023/01/06 01:04:14;;;;;;;3.85;1.80;;;14.80;61.50;;;;;;5002607;28;20022;-87
2023/01/06 01:06:44;;;;;;;3.42;1.80;;;14.90;60.80;;;;;;5003106;28;20065;-83
2023/01/06 01:09:22;;;;;;;3.30;1.80;;;15.10;60.60;;;;;;4997176;28;20018;-96
2023/01/06 01:14:33;;;;;;;4.00;1.80;;;14.60;61.60;;;;;;5008814;28;20029;-86
2023/01/06 01:17:00;;;;;;;3.35;1.92;;;14.80;61.30;;;;;;5015362;28;20393;-92
2023/01/06 01:19:27;;;;;;;3.90;1.80;;;14.50;61.10;;;;;;5019444;28;20467;-95
2023/01/06 01:21:53;;;;;;;4.55;2.22;;;14.60;61.60;;;;;;5016752;28;20109;-87
2023/01/06 01:24:19;;;;;;;3.40;1.80;;;15.10;60.80;;;;;;5011457;28;20164;-87
2023/01/06 01:26:45;;;;;;;3.17;1.90;;;15.40;60.30;;;;;;5010760;28;20050;-85
2023/01/06 01:29:13;;;;;;;3.50;1.90;;;15.70;59.20;;;;;;5013493;28;20109;-84
2023/01/06 01:31:39;;;;;;;4.40;1.90;;;15.40;59.10;;;;;;5016678;28;20042;-84
2023/01/06 01:34:05;;;;;;;3.38;1.80;;;14.90;60.60;;;;;;5012231;28;20095;-88
2023/01/06 01:36:31;;;;;;;3.88;1.83;;;15.10;60.60;;;;;;5014097;28;20117;-94
2023/01/06 01:38:58;;;;;;;3.30;1.85;;;15.10;60.00;;;;;;4997815;28;20025;-93
2023/01/06 01:41:25;;;;;;;4.40;1.80;;;15.30;60.10;;;;;;5012541;28;20089;-86
2023/01/06 01:44:01;;;;;;;4.25;2.25;;;15.50;59.70;;;;;;5013901;28;20034;-95
2023/01/06 01:46:36;;;;;;;3.83;1.88;;;15.30;59.60;;;;;;5013467;28;20028;-86
2023/01/06 01:49:13;;;;;;;3.55;1.98;;;15.30;59.90;;;;;;4995663;28;20027;-85
2023/01/06 01:51:44;;;;;;;3.65;2.00;;;15.10;60.20;;;;;;5011069;28;20126;-89
2023/01/06 01:54:14;;;;;;;4.25;1.90;;;14.90;60.70;;;;;;5011302;28;20026;-86
2023/01/06 01:56:46;;;;;;;3.17;2.13;;;14.70;61.10;;;;;;5010883;28;20029;-78
2023/01/06 01:59:16;;;;;;;3.13;1.75;;;14.60;61.20;;;;;;5010904;28;20026;-92
2023/01/06 02:01:43;;;;;;;3.75;2.00;;;14.60;61.90;;;;;;5010946;28;20394;-89
2023/01/06 02:04:09;;;;;;;3.33;2.15;;;14.70;61.40;;;;;;4995779;28;20038;-91
2023/01/06 02:06:35;;;;;;;3.35;2.03;;;14.60;61.90;;;;;;5010403;28;20027;-91
2023/01/06 02:09:19;;;;;;;6.22;2.33;;;14.40;62.20;;;;;;5009942;28;20026;-92
2023/01/06 02:11:49;;;;;;;3.40;2.00;;;14.40;62.70;;;;;;5009807;28;20485;-91
2023/01/06 02:14:18;;;;;;;4.03;2.17;;;14.60;62.20;;;;;;5009886;28;20030;-89
2023/01/06 02:17:12;;;;;;;5.80;1.90;;;14.70;61.70;;;;;;5009963;28;20132;-92
2023/01/06 02:19:55;;;;;;;4.57;1.90;;;14.80;61.60;;;;;;4993271;28;20034;-88
2023/01/06 02:22:53;;;;;;;3.50;2.10;;;14.70;62.10;;;;;;4993334;28;20416;-90
2023/01/06 02:25:40;;;;;;;3.70;2.10;;;14.60;62.00;;;;;;5000381;28;20034;-91
2023/01/06 02:28:24;;;;;;;4.47;2.10;;;14.30;62.90;;;;;;4993351;28;20062;-89
2023/01/06 02:31:17;;;;;;;4.65;2.50;;;14.30;62.70;;;;;;4993437;28;20026;-87
2023/01/06 02:34:04;;;;;;;4.68;2.35;;;14.10;63.70;;;;;;4993020;28;20056;-86
2023/01/06 02:37:09;;;;;;;6.00;2.80;;;14.10;63.90;;;;;;5009246;28;20033;-88
2023/01/06 02:39:44;;;;;;;4.30;2.63;;;14.10;64.00;;;;;;5009457;28;20024;-90
2023/01/06 02:42:35;;;;;;;4.88;2.85;;;14.20;63.80;;;;;;4993036;28;20026;-85
2023/01/06 02:45:27;;;;;;;6.00;3.10;;;14.20;63.30;;;;;;5010015;28;20031;-93
2023/01/06 02:48:01;;;;;;;5.47;2.78;;;14.20;63.70;;;;;;4935479;29;20035;-87
2023/01/06 02:50:36;;;;;;;4.75;2.85;;;14.00;63.90;;;;;;4930620;29;20038;-86
2023/01/06 02:53:20;;;;;;;4.13;2.65;;;14.00;64.00;;;;;;4923755;29;20503;-89
2023/01/06 02:55:48;;;;;;;4.63;2.90;;;13.70;64.60;;;;;;4923494;29;20510;-91
2023/01/06 02:58:29;;;;;;;5.18;2.70;;;13.80;65.50;;;;;;4925350;29;20083;-90
2023/01/06 03:01:10;;;;;;;5.18;2.95;;;14.10;63.90;;;;;;4940660;29;20031;-84
2023/01/06 03:03:41;;;;;;;4.18;2.80;;;13.90;63.80;;;;;;4931667;29;20064;-81
2023/01/06 03:06:12;;;;;;;5.20;3.03;;;13.90;64.10;;;;;;4903834;29;20036;-90
2023/01/06 03:08:41;;;;;;;4.55;3.05;;;14.10;64.30;;;;;;4903929;29;20111;-90
2023/01/06 03:11:07;;;;;;;7.55;3.60;;;14.40;63.70;;;;;;4903090;29;20040;-87
2023/01/06 03:13:52;;;;;;;7.78;3.15;;;14.40;63.50;;;;;;4903516;29;20539;-82
2023/01/06 03:16:19;;;;;;;6.90;3.25;;;14.40;63.10;;;;;;4937126;29;20115;-92
2023/01/06 03:18:46;;;;;;;5.55;3.50;;;14.20;63.90;;;;;;4914769;29;20060;-89
2023/01/06 03:21:19;;;;;;;5.75;3.40;;;13.90;64.50;;;;;;4903614;29;20060;-93
2023/01/06 03:23:46;;;;;;;7.75;3.95;;;13.90;65.20;;;;;;4910737;28;20060;-96
2023/01/06 03:26:12;;;;;;;6.15;3.47;;;14.10;64.60;;;;;;4993503;28;20055;-87
2023/01/06 03:28:38;;;;;;;9.50;3.88;;;13.90;65.40;;;;;;4993664;28;20043;-93
2023/01/06 03:31:29;;;;;;;7.30;3.88;;;13.80;65.30;;;;;;4993198;28;20070;-91
2023/01/06 03:34:26;;;;;;;6.30;3.40;;;13.90;65.30;;;;;;4993615;28;20097;-92
2023/01/06 03:37:03;;;;;;;6.38;3.38;;;13.90;65.40;;;;;;4993486;28;20027;-92
2023/01/06 03:39:35;;;;;;;6.60;3.60;;;13.70;65.50;;;;;;4995049;28;20351;-95
2023/01/06 03:45:36;;;;;;;5.93;3.45;;;13.80;65.30;;;;;;4979305;28;20509;-87
2023/01/06 03:48:09;;;;;;;6.28;3.50;;;14.10;64.60;;;;;;4993598;28;20034;-85
2023/01/06 03:50:41;;;;;;;7.38;3.92;;;14.00;64.50;;;;;;4980728;28;20018;-95
2023/01/06 03:53:33;;;;;;;7.32;3.58;;;13.90;65.00;;;;;;5012649;28;20093;-86
2023/01/06 03:56:09;;;;;;;6.97;3.42;;;14.10;64.00;;;;;;4996319;28;20054;-86
2023/01/06 03:58:37;;;;;;;5.47;3.20;;;14.00;64.40;;;;;;4994850;28;20018;-91
2023/01/06 04:01:04;;;;;;;7.45;3.75;;;14.00;63.90;;;;;;5012253;28;20027;-88
2023/01/06 04:03:30;;;;;;;6.47;3.78;;;14.10;63.90;;;;;;5012438;28;20477;-83
2023/01/06 04:05:57;;;;;;;7.95;3.40;;;13.60;64.80;;;;;;5012323;28;20038;-90
2023/01/06 04:08:22;;;;;;;6.18;3.65;;;13.70;65.00;;;;;;5012176;28;20023;-84
2023/01/06 04:10:48;;;;;;;6.82;3.30;;;13.70;64.20;;;;;;5012251;28;20041;-94
2023/01/06 04:13:14;;;;;;;5.57;3.42;;;13.70;64.50;;;;;;5011984;28;20046;-89
2023/01/06 04:15:40;;;;;;;6.00;3.25;;;13.80;64.40;;;;;;5012124;28;20026;-81
2023/01/06 04:18:05;;;;;;;5.13;3.42;;;13.90;64.00;;;;;;5011944;28;20121;-93
2023/01/06 04:20:31;;;;;;;7.55;3.42;;;13.90;63.80;;;;;;4995959;28;20069;-88
2023/01/06 04:22:57;;;;;;;5.55;3.40;;;14.00;63.70;;;;;;4995644;28;20027;-92
2023/01/06 04:25:23;;;;;;;7.20;3.15;;;13.90;63.60;;;;;;4995687;28;20038;-89
2023/01/06 04:27:49;;;;;;;5.63;3.10;;;13.90;63.80;;;;;;4995387;28;20030;-85
2023/01/06 04:30:15;;;;;;;7.28;3.28;;;13.70;64.20;;;;;;4996100;28;20031;-89
2023/01/06 04:32:41;;;;;;;8.13;3.53;;;13.80;63.90;;;;;;4996636;28;20038;-91
2023/01/06 04:35:07;;;;;;;6.60;3.15;;;13.60;64.50;;;;;;4996374;28;20118;-88
2023/01/06 04:37:35;;;;;;;6.75;3.40;;;13.40;65.00;;;;;;4995948;28;20026;-92
2023/01/06 04:40:01;;;;;;;6.40;3.30;;;13.10;65.80;;;;;;4996839;28;20501;-85
2023/01/06 04:42:26;;;;;;;5.38;3.30;;;13.30;65.60;;;;;;4996406;28;20038;-89
2023/01/06 04:44:52;;;;;;;7.68;3.70;;;13.40;65.00;;;;;;4997530;28;20019;-90
2023/01/06 04:47:18;;;;;;;5.20;3.40;;;13.50;64.80;;;;;;4995694;28;20588;-87
2023/01/06 04:49:44;;;;;;;5.20;3.42;;;13.40;64.50;;;;;;4995401;28;20433;-94
2023/01/06 04:52:09;;;;;;;7.55;3.63;;;13.50;64.70;;;;;;4994890;28;20129;-88
2023/01/06 04:54:35;;;;;;;5.75;3.40;;;13.70;64.30;;;;;;4996010;28;20030;-87
2023/01/06 04:57:01;;;;;;;5.68;3.60;;;13.70;64.20;;;;;;4995040;28;20065;-86
2023/01/06 04:59:27;;;;;;;8.77;3.80;;;13.40;64.80;;;;;;4995389;28;20027;-93
2023/01/06 05:01:52;;;;;;;6.65;3.90;;;13.30;65.10;;;;;;4995980;28;20057;-88
2023/01/06 05:04:19;;;;;;;6.20;3.50;;;13.40;65.00;;;;;;4994789;28;20373;-92
2023/01/06 05:06:45;;;;;;;5.50;3.22;;;13.00;65.10;;;;;;4994822;28;20026;-87
2023/01/06 05:09:10;;;;;;;7.30;3.78;;;13.00;66.00;;;;;;4994567;28;20034;-91
2023/01/06 05:11:37;;;;;;;5.82;3.28;;;13.10;65.50;;;;;;4995010;28;20047;-85
2023/01/06 05:14:03;;;;;;;7.38;4.25;;;12.80;65.80;;;;;;4994873;28;20033;-87
2023/01/06 05:16:33;;;;;;;8.43;3.97;;;12.60;67.10;;;;;;4994754;28;20022;-90
2023/01/06 05:18:59;;;;;;;5.78;3.38;;;12.70;66.90;;;;;;4994592;28;20493;-92
2023/01/06 05:21:27;;;;;;;6.53;3.40;;;12.90;66.20;;;;;;4994657;28;20038;-86
2023/01/06 05:23:54;;;;;;;6.07;3.50;;;13.10;65.50;;;;;;4994524;28;20027;-91
2023/01/06 05:26:25;;;;;;;8.25;4.10;;;13.00;65.30;;;;;;4994052;28;20540;-86
2023/01/06 05:28:50;;;;;;;6.13;3.45;;;13.30;64.90;;;;;;5010841;28;20046;-93
2023/01/06 05:31:17;;;;;;;7.13;3.78;;;13.20;64.50;;;;;;5011889;28;20117;-88
2023/01/06 05:33:43;;;;;;;7.20;3.17;;;13.10;65.30;;;;;;5011124;28;20018;-89
2023/01/06 05:36:14;;;;;;;7.18;3.40;;;13.20;64.60;;;;;;4989987;28;20030;-87
2023/01/06 05:38:43;;;;;;;8.93;3.65;;;13.00;65.60;;;;;;5011780;28;20038;-89
2023/01/06 05:41:09;;;;;;;5.53;3.15;;;13.10;65.00;;;;;;5012184;28;20045;-86
2023/01/06 05:43:35;;;;;;;5.90;3.30;;;13.20;64.80;;;;;;5011762;28;20397;-83
2023/01/06 05:46:07;;;;;;;5.53;3.33;;;13.10;64.90;;;;;;5010965;28;20098;-92
2023/01/06 05:48:33;;;;;;;5.30;3.42;;;12.80;65.90;;;;;;5010645;28;20026;-87
2023/01/06 05:51:17;;;;;;;5.00;3.05;;;12.70;65.90;;;;;;5007088;28;20034;-89
2023/01/06 05:53:45;;;;;;;9.32;3.15;;;12.80;65.90;;;;;;4991418;28;20039;-91
2023/01/06 05:56:13;;;;;;;4.93;3.35;;;13.10;65.30;;;;;;4994147;28;20125;-92
2023/01/06 05:58:42;;;;;;;4.75;2.97;;;13.50;64.00;;;;;;4993719;28;20445;-92
2023/01/06 06:01:24;;;;;;;6.93;3.45;;;13.40;63.90;;;;;;4993788;28;20085;-93
2023/01/06 06:03:51;;;;;;;6.88;3.10;;;13.40;64.10;;;;;;4993931;28;20389;-90
2023/01/06 06:06:18;;;;;;;7.80;2.80;;;13.50;63.50;;;;;;4993730;28;20030;-88
2023/01/06 06:08:43;;;;;;;5.40;3.20;;;13.60;63.10;;;;;;4993926;28;20385;-89
2023/01/06 06:11:12;;;;;;;4.93;3.10;;;13.80;63.10;;;;;;4993454;28;20034;-91
2023/01/06 06:13:43;;;;;;;5.20;3.17;;;13.70;62.90;;;;;;4993605;28;20031;-88
2023/01/06 06:16:11;;;;;;;8.77;5.55;;;13.50;63.40;;;;;;4993293;28;20065;-90
2023/01/06 06:18:41;;;;;;;14.55;7.45;;;13.60;63.60;;;;;;5009309;28;20030;-92
2023/01/06 06:21:12;;;;;;;8.00;3.90;;;13.80;62.90;;;;;;4996607;28;20022;-91
2023/01/06 06:23:38;;;;;;;5.70;3.17;;;14.00;62.00;;;;;;4993413;28;20030;-92
2023/01/06 06:26:04;;;;;;;6.78;3.25;;;13.90;62.50;;;;;;5009639;28;20046;-91
2023/01/06 06:28:31;;;;;;;5.28;3.72;;;13.80;62.40;;;;;;5009273;28;20058;-91
2023/01/06 06:31:06;;;;;;;7.70;3.90;;;13.90;62.50;;;;;;5009776;28;20018;-89
2023/01/06 06:33:32;;;;;;;4.40;2.83;;;13.80;62.50;;;;;;5009939;28;20069;-87
2023/01/06 06:35:59;;;;;;;4.75;2.88;;;13.80;62.70;;;;;;5009918;28;20153;-90
2023/01/06 06:38:25;;;;;;;4.85;2.63;;;13.40;63.30;;;;;;5007290;28;20121;-89
2023/01/06 06:40:50;;;;;;;4.88;2.75;;;13.30;63.40;;;;;;4997316;28;20100;-87
2023/01/06 06:43:16;;;;;;;5.63;3.28;;;13.50;63.30;;;;;;5009819;28;20026;-90
2023/01/06 06:45:46;;;;;;;4.97;3.00;;;13.40;63.30;;;;;;5001943;28;20027;-89
2023/01/06 06:48:12;;;;;;;5.72;3.30;;;13.40;63.40;;;;;;4991681;28;20023;-91
2023/01/06 06:50:38;;;;;;;4.97;3.10;;;13.40;64.00;;;;;;4989436;28;20034;-88
2023/01/06 06:53:04;;;;;;;5.20;2.95;;;13.50;63.90;;;;;;4989923;28;20046;-88
2023/01/06 06:55:29;;;;;;;5.95;3.50;;;13.60;63.10;;;;;;4990139;28;20023;-91
2023/01/06 06:57:55;;;;;;;5.88;3.08;;;13.80;63.00;;;;;;4989796;28;20027;-90
2023/01/06 07:00:21;;;;;;;5.97;3.63;;;13.70;62.90;;;;;;4998540;28;20030;-86
2023/01/06 07:02:48;;;;;;;6.38;3.60;;;13.70;63.30;;;;;;5009211;28;20165;-89
2023/01/06 07:05:17;;;;;;;6.32;4.30;;;14.00;62.40;;;;;;4992608;28;20027;-90
2023/01/06 07:07:43;;;;;;;7.35;4.10;;;14.30;61.70;;;;;;4992662;28;20133;-88
2023/01/06 07:10:18;;;;;;;6.28;3.55;;;14.50;61.40;;;;;;4992248;28;20027;-85
2023/01/06 07:12:43;;;;;;;5.60;3.50;;;14.40;61.20;;;;;;4994570;28;20089;-89
2023/01/06 07:15:10;;;;;;;6.15;3.83;;;14.10;62.50;;;;;;4994137;28;20056;-91
2023/01/06 07:17:36;;;;;;;7.63;4.20;;;14.30;62.00;;;;;;5008613;28;20028;-88
2023/01/06 07:20:02;;;;;;;6.50;3.38;;;14.40;61.50;;;;;;4991608;28;20030;-86
2023/01/06 07:22:27;;;;;;;5.15;3.35;;;14.40;61.80;;;;;;4990330;28;20050;-94
2023/01/06 07:24:53;;;;;;;6.07;3.45;;;14.20;61.80;;;;;;5009463;28;20026;-94
2023/01/06 07:27:19;;;;;;;5.30;3.25;;;13.70;63.00;;;;;;5009472;28;20070;-89
2023/01/06 07:29:44;;;;;;;6.50;3.55;;;13.60;63.40;;;;;;5004645;28;20085;-84
2023/01/06 07:32:10;;;;;;;6.75;3.28;;;13.80;63.10;;;;;;4991613;28;20129;-94
2023/01/06 07:34:38;;;;;;;6.55;3.85;;;13.70;62.90;;;;;;4993527;28;20402;-94
2023/01/06 07:37:04;;;;;;;6.13;3.35;;;13.90;63.00;;;;;;4993689;28;20390;-86
2023/01/06 07:39:29;;;;;;;4.90;3.05;;;14.20;62.00;;;;;;4992955;28;20030;-85
2023/01/06 07:41:55;;;;;;;5.45;3.05;;;14.30;61.60;;;;;;4993029;28;20061;-92
2023/01/06 07:44:21;;;;;;;8.68;3.22;;;13.60;63.00;;;;;;4993466;28;20030;-90
2023/01/06 07:46:46;;;;;;;5.97;3.20;;;13.70;63.80;;;;;;4993286;28;20484;-89
2023/01/06 07:49:12;;;;;;;6.72;3.38;;;14.10;62.90;;;;;;4992850;28;20577;-90
2023/01/06 07:51:38;;;;;;;9.10;4.13;;;14.30;61.90;;;;;;4993299;28;20035;-88
2023/01/06 07:54:03;;;;;;;11.00;5.80;;;14.50;61.70;;;;;;4994100;28;20030;-88
2023/01/06 07:56:29;;;;;;;6.95;2.97;;;14.70;60.90;;;;;;4992607;28;20069;-90
2023/01/06 07:58:54;;;;;;;5.55;2.80;;;14.40;61.10;;;;;;4992802;28;20023;-87
2023/01/06 08:01:20;;;;;;;8.15;3.13;;;14.10;61.30;;;;;;4993831;28;20038;-92
2023/01/06 08:03:46;;;;;;;5.15;2.95;;;14.00;62.20;;;;;;4994010;28;20038;-91
2023/01/06 08:06:12;;;;;;;6.68;3.20;;;14.30;61.80;;;;;;4977755;28;20800;-92
2023/01/06 08:08:39;;;;;;;4.75;2.83;;;14.10;62.20;;;;;;4993959;28;20085;-89
2023/01/06 08:11:06;;;;;;;9.23;3.10;;;13.90;61.60;;;;;;4993792;28;20054;-93
2023/01/06 08:13:33;;;;;;;9.65;5.60;;;13.90;61.90;;;;;;4994132;28;20465;-93
2023/01/06 08:16:03;;;;;;;7.20;4.47;;;14.10;61.70;;;;;;4993347;28;20122;-90
2023/01/06 08:18:28;;;;;;;5.80;3.55;;;14.40;61.40;;;;;;4992468;28;20034;-84
2023/01/06 08:21:03;;;;;;;4.75;2.80;;;14.90;60.00;;;;;;4992253;28;20393;-90
2023/01/06 08:23:29;;;;;;;5.00;2.95;;;14.80;59.70;;;;;;4992225;28;20483;-88
2023/01/06 08:26:06;;;;;;;4.88;2.70;;;14.80;59.90;;;;;;4992230;28;20046;-88
2023/01/06 08:28:32;;;;;;;4.50;2.70;;;14.90;60.00;;;;;;4992217;28;20090;-87
2023/01/06 08:30:58;;;;;;;6.18;2.85;;;15.10;59.60;;;;;;4992201;28;20049;-87
2023/01/06 08:33:24;;;;;;;4.07;2.40;;;15.60;58.10;;;;;;4992194;28;20505;-90
2023/01/06 08:36:01;;;;;;;6.72;2.72;;;15.70;58.00;;;;;;4992136;28;20412;-90
2023/01/06 08:38:28;;;;;;;4.00;2.50;;;16.20;56.90;;;;;;4992026;28;20027;-92
2023/01/06 08:40:56;;;;;;;5.30;2.58;;;16.60;56.20;;;;;;4992132;28;20466;-91
2023/01/06 08:43:21;;;;;;;5.70;2.75;;;17.10;55.40;;;;;;4991388;28;20030;-89
2023/01/06 08:45:48;;;;;;;4.93;2.55;;;17.40;55.20;;;;;;4992790;28;20378;-89
2023/01/06 08:48:14;;;;;;;4.82;2.78;;;17.60;54.50;;;;;;4993344;28;20046;-89
2023/01/06 08:50:41;;;;;;;5.43;3.10;;;17.90;53.80;;;;;;4993126;28;20031;-92
2023/01/06 08:53:08;;;;;;;4.80;2.60;;;18.70;53.20;;;;;;4993177;28;20136;-92
2023/01/06 08:55:36;;;;;;;5.20;3.28;;;20.00;51.30;;;;;;4992691;28;20023;-91
2023/01/06 08:58:02;;;;;;;5.60;3.20;;;21.60;49.10;;;;;;4993148;28;20027;-91
2023/01/06 09:00:27;;;;;;;7.90;3.38;;;23.10;47.10;;;;;;4992711;28;20394;-90
2023/01/06 09:02:53;;;;;;;4.72;2.65;;;23.90;45.90;;;;;;4991576;28;20030;-89
2023/01/06 09:05:19;;;;;;;3.53;2.28;;;24.50;45.10;;;;;;4992202;28;20211;-94
2023/01/06 09:07:45;;;;;;;6.18;2.63;;;25.60;44.70;;;;;;4992623;28;20117;-90
2023/01/06 09:10:10;;;;;;;7.05;2.90;;;26.90;43.70;;;;;;4992024;28;20371;-90
2023/01/06 09:12:37;;;;;;;7.80;3.03;;;28.00;42.60;;;;;;4991401;28;20537;-90
2023/01/06 09:15:03;;;;;;;4.72;2.70;;;28.90;41.80;;;;;;4991428;28;20046;-93
2023/01/06 09:17:31;;;;;;;6.45;3.45;;;29.30;41.10;;;;;;4991163;28;20027;-89
2023/01/06 09:19:57;;;;;;;34.83;19.88;;;28.50;40.80;;;;;;4991243;28;20033;-87
2023/01/06 09:22:23;;;;;;;7.38;4.88;;;26.70;41.60;;;;;;4990744;28;20038;-88
2023/01/06 09:24:48;;;;;;;4.60;2.72;;;25.10;42.70;;;;;;4991119;28;20027;-91
2023/01/06 09:27:14;;;;;;;6.70;3.35;;;23.90;44.10;;;;;;4990443;28;20061;-90
2023/01/06 09:29:40;;;;;;;5.13;3.40;;;23.10;45.30;;;;;;4990736;28;20494;-90
2023/01/06 09:32:06;;;;;;;5.38;2.58;;;22.70;45.40;;;;;;4990710;28;20039;-91
2023/01/06 09:34:32;;;;;;;6.78;4.43;;;22.60;45.20;;;;;;4990454;28;20070;-90
2023/01/06 09:36:57;;;;;;;5.20;3.45;;;22.80;45.20;;;;;;4990595;28;20120;-93
2023/01/06 09:39:23;;;;;;;6.13;3.80;;;22.50;45.50;;;;;;4990571;28;20030;-89
2023/01/06 09:42:04;;;;;;;7.15;3.15;;;21.70;45.60;;;;;;4990345;28;20121;-89
2023/01/06 09:44:59;;;;;;;4.05;2.40;;;20.70;46.80;;;;;;4974688;28;20027;-91
2023/01/06 09:47:31;;;;;;;3.83;2.50;;;20.10;47.30;;;;;;4973032;28;20039;-92
2023/01/06 09:50:10;;;;;;;6.00;3.38;;;20.10;48.00;;;;;;4990467;28;20023;-92
2023/01/06 09:52:46;;;;;;;6.03;2.97;;;20.30;47.70;;;;;;4974423;28;20043;-88
2023/01/06 09:55:38;;;;;;;6.10;3.30;;;20.00;47.90;;;;;;4973581;28;20430;-89
2023/01/06 09:58:33;;;;;;;7.88;2.97;;;19.30;49.00;;;;;;4967132;28;20081;-87
2023/01/06 10:01:03;;;;;;;7.43;4.03;;;18.50;50.20;;;;;;4918971;29;20039;-92
2023/01/06 10:03:29;;;;;;;;;;;18.70;50.70;;;;;;4951360;29;20138;-85
2023/01/06 10:06:03;;;;;;;6.20;4.13;;;18.50;49.80;;;;;;4918941;29;20005;-85
2023/01/06 10:08:47;;;;;;;7.45;4.72;;;18.70;50.10;;;;;;4950737;29;20110;-88
2023/01/06 10:11:14;;;;;;;9.15;5.18;;;19.80;49.50;;;;;;4950622;29;20035;-88
2023/01/06 10:13:50;;;;;;;11.80;8.15;;;20.60;47.10;;;;;;4950870;29;20387;-86
2023/01/06 10:16:50;;;;;;;7.22;3.53;;;21.20;47.50;;;;;;4950657;28;20049;-88
2023/01/06 10:19:48;;;;;;;7.35;6.15;;;22.00;45.40;;;;;;4950509;29;20063;-89
2023/01/06 10:22:57;;;;;;;6.07;3.63;;;22.80;45.50;;;;;;4950285;28;20052;-88
2023/01/06 10:25:49;;;;;;;7.68;4.10;;;22.50;44.20;;;;;;4950326;29;20032;-87
2023/01/06 10:28:28;;;;;;;4.78;2.90;;;22.70;44.70;;;;;;4950217;29;20039;-93
2023/01/06 10:31:07;;;;;;;4.90;2.67;;;22.30;44.90;;;;;;4950635;29;20126;-85
2023/01/06 10:33:37;;;;;;;6.60;2.70;;;21.60;45.50;;;;;;4950454;29;20479;-86
2023/01/06 10:36:03;;;;;;;5.18;3.15;;;21.30;45.90;;;;;;4952086;29;20027;-88
2023/01/06 10:38:45;;;;;;;4.40;2.63;;;21.40;46.20;;;;;;4988129;28;20027;-92
2023/01/06 10:41:32;;;;;;;4.68;2.67;;;21.20;45.80;;;;;;4989632;28;20031;-87
2023/01/06 10:43:58;;;;;;;5.60;2.92;;;21.00;46.00;;;;;;4973355;28;20027;-92
2023/01/06 10:46:31;;;;;;;5.22;3.00;;;20.90;47.10;;;;;;4989948;28;20026;-86
2023/01/06 10:48:57;;;;;;;5.20;2.70;;;20.30;47.40;;;;;;4989613;28;20073;-94
2023/01/06 10:51:39;;;;;;;7.53;3.00;;;19.70;47.40;;;;;;4973261;28;20062;-88
2023/01/06 10:54:23;;;;;;;7.13;3.28;;;19.00;48.90;;;;;;4989667;28;20031;-88
2023/01/06 10:57:13;;;;;;;5.72;2.88;;;19.00;49.50;;;;;;4989849;28;20022;-88
2023/01/06 11:00:07;;;;;;;6.80;3.30;;;19.20;49.10;;;;;;4990012;28;20027;-88
2023/01/06 11:02:32;;;;;;;5.65;3.20;;;19.00;49.40;;;;;;4973576;28;20438;-89
2023/01/06 11:05:01;;;;;;;7.57;3.47;;;18.80;49.40;;;;;;4989279;28;20082;-91
2023/01/06 11:07:28;;;;;;;4.90;3.00;;;18.50;49.70;;;;;;4996077;28;20022;-86
2023/01/06 11:09:55;;;;;;;4.95;2.88;;;18.40;49.40;;;;;;5013252;28;20088;-86
2023/01/06 11:12:26;;;;;;;7.78;3.30;;;18.60;49.90;;;;;;5013648;28;20501;-87
2023/01/06 11:14:58;;;;;;;4.95;2.78;;;18.80;48.90;;;;;;5013146;28;20104;-95
2023/01/06 11:17:26;;;;;;;5.45;2.80;;;18.70;48.90;;;;;;5015201;28;20034;-90
2023/01/06 11:20:17;;;;;;;6.18;3.08;;;18.70;49.00;;;;;;5014155;28;20033;-90
2023/01/06 11:22:43;;;;;;;18.23;9.95;;;19.00;49.30;;;;;;5013802;28;20053;-84
2023/01/06 11:25:28;;;;;;;8.02;4.22;;;19.50;48.70;;;;;;5014139;28;20493;-87
2023/01/06 11:28:16;;;;;;;175.82;117.65;;;19.60;48.40;;;;;;5013250;28;20046;-92
2023/01/06 11:30:58;;;;;;;135.48;96.88;;;19.50;48.60;;;;;;5014421;28;20094;-83
2023/01/06 11:33:26;;;;;;;8.77;4.97;;;18.90;48.90;;;;;;5012685;28;20105;-87
2023/01/06 11:35:53;;;;;;;11.45;7.28;;;18.80;48.80;;;;;;5015557;28;20030;-90
2023/01/06 11:38:21;;;;;;;46.08;41.15;;;18.20;49.30;;;;;;5014363;28;20029;-90
2023/01/06 11:40:49;;;;;;;19.50;17.48;;;18.10;49.90;;;;;;5012542;28;20416;-85
2023/01/06 11:43:19;;;;;;;21.88;17.80;;;18.10;50.90;;;;;;5012546;28;20034;-85
2023/01/06 11:45:56;;;;;;;212.95;133.55;;;18.20;50.10;;;;;;5013391;28;20386;-84
2023/01/06 11:48:36;;;;;;;14.20;8.50;;;18.00;49.80;;;;;;5012387;28;20027;-86
2023/01/06 11:51:07;;;;;;;6.97;4.30;;;18.00;49.80;;;;;;4996135;28;20034;-86
2023/01/06 11:53:35;;;;;;;15.77;13.50;;;18.00;50.00;;;;;;5012565;28;20026;-92
2023/01/06 11:56:17;;;;;;;13.02;9.95;;;17.70;50.70;;;;;;5013211;28;20036;-91
2023/01/06 11:59:01;;;;;;;11.30;8.35;;;18.00;50.40;;;;;;5012531;28;20027;-86
2023/01/06 12:02:10;;;;;;;15.02;10.82;;;18.30;50.60;;;;;;5012314;28;20050;-87
2023/01/06 12:04:45;;;;;;;12.35;5.38;;;18.40;50.30;;;;;;5013176;28;20469;-89
2023/01/06 12:07:22;;;;;;;10.20;6.75;;;18.40;50.60;;;;;;5012836;28;20072;-86
2023/01/06 12:09:50;;;;;;;7.60;4.50;;;18.20;50.70;;;;;;5012913;28;20019;-85
2023/01/06 12:12:22;;;;;;;5.78;3.35;;;18.30;51.30;;;;;;5012428;28;20034;-91
2023/01/06 12:14:47;;;;;;;8.25;4.38;;;18.40;50.50;;;;;;5012993;28;20469;-90
2023/01/06 12:17:22;;;;;;;8.07;5.68;;;18.60;50.70;;;;;;5012493;28;20072;-91
2023/01/06 12:19:51;;;;;;;5.95;3.63;;;18.70;50.70;;;;;;5012053;28;20035;-85
2023/01/06 12:22:35;;;;;;;9.25;6.20;;;18.60;51.00;;;;;;5011848;28;20050;-86
2023/01/06 12:25:09;;;;;;;7.47;5.13;;;18.50;51.40;;;;;;5011762;28;20077;-85
2023/01/06 12:28:14;;;;;;;8.10;4.88;;;18.10;52.50;;;;;;4836647;28;10000404;-87
2023/01/06 12:30:54;;;;;;;9.95;4.60;;;18.20;52.90;;;;;;4992066;28;20227;-86
2023/01/06 12:33:32;;;;;;;8.77;6.35;;;18.30;52.40;;;;;;4975176;28;20434;-86
2023/01/06 12:36:06;;;;;;;8.15;5.70;;;18.20;52.80;;;;;;4975757;28;20031;-87
2023/01/06 12:38:41;;;;;;;16.05;14.32;;;18.40;52.30;;;;;;4975463;28;20058;-88
2023/01/06 12:41:41;;;;;;;8.57;4.13;;;18.70;52.40;;;;;;4974843;28;20031;-88
2023/01/06 12:44:35;;;;;;;5.88;3.72;;;18.70;52.10;;;;;;4974618;28;20085;-89
2023/01/06 12:47:13;;;;;;;8.88;6.55;;;18.50;52.60;;;;;;4974377;28;20502;-88
2023/01/06 12:49:54;;;;;;;7.53;5.65;;;18.90;52.70;;;;;;4973767;28;20086;-86
2023/01/06 12:52:30;;;;;;;12.13;9.38;;;19.00;51.30;;;;;;4984493;28;20054;-86
2023/01/06 12:54:57;;;;;;;7.60;4.97;;;19.20;51.50;;;;;;4974862;28;20034;-89
2023/01/06 12:57:37;;;;;;;6.95;4.50;;;19.30;51.20;;;;;;4975101;28;20447;-83
2023/01/06 13:00:12;;;;;;;7.27;4.50;;;19.20;51.20;;;;;;4974885;28;20110;-86
2023/01/06 13:03:06;;;;;;;8.65;5.15;;;19.20;51.60;;;;;;4974643;28;20027;-85
2023/01/06 13:05:37;;;;;;;7.65;4.95;;;19.40;51.30;;;;;;4974170;28;20089;-86
2023/01/06 13:08:06;;;;;;;12.98;9.30;;;19.50;50.80;;;;;;4973729;28;20050;-86
2023/01/06 13:11:12;;;;;;;16.10;11.02;;;19.40;51.00;;;;;;4974107;28;20417;-89
2023/01/06 13:14:25;;;;;;;23.90;21.23;;;19.60;51.00;;;;;;4935664;29;20046;-86